Wetterdaten: Woche 29.12.25 - 04.01.26 (KW1)
Datum Zeit Temp. Aussen Temp. o. S. Temp +5cm Feuchte Auss Luftdruck Regen Sonnenschein Solar Windböen Empfang
29.12.2025 00:00 -3,9 °C -4,8 °C -7,2 °C 94 % 1028,6 hPa 0,0 l/m² 0,00 h 0 W/m² 0,5 km/h (0 Bft) 98,31 %
29.12.2025 01:00 -3,9 °C -4,6 °C -7,0 °C 95 % 1028,5 hPa 0,0 l/m² 0,00 h 0 W/m² 0,9 km/h (0 Bft) 94,20 %
29.12.2025 02:00 -3,9 °C -4,5 °C -7,1 °C 95 % 1028,1 hPa 0,0 l/m² 0,00 h 0 W/m² 1,7 km/h (1 Bft) 97,97 %
29.12.2025 03:00 -3,9 °C -4,1 °C -6,8 °C 96 % 1028,1 hPa 0,0 l/m² 0,00 h 0 W/m² 0,9 km/h (0 Bft) 96,23 %
29.12.2025 04:00 -3,2 °C -3,3 °C -5,9 °C 96 % 1027,8 hPa 0,0 l/m² 0,00 h 0 W/m² 0,0 km/h (0 Bft) 99,04 %
29.12.2025 05:00 -2,5 °C -2,8 °C -5,6 °C 97 % 1027,3 hPa 0,0 l/m² 0,00 h 0 W/m² 0,0 km/h (0 Bft) 95,58 %
29.12.2025 06:00 -2,3 °C -2,8 °C -5,1 °C 97 % 1026,9 hPa 0,0 l/m² 0,00 h 0 W/m² 0,0 km/h (0 Bft) 94,92 %
29.12.2025 07:00 -2,0 °C -2,4 °C -5,0 °C 97 % 1027,1 hPa 0,0 l/m² 0,00 h 0 W/m² 0,0 km/h (0 Bft) 97,42 %
29.12.2025 08:00 -1,7 °C -2,2 °C -4,5 °C 97 % 1027,3 hPa 0,0 l/m² 0,00 h 0 W/m² 1,4 km/h (1 Bft) 96,65 %
29.12.2025 09:00 -1,2 °C -1,7 °C -4,1 °C 98 % 1027,4 hPa 0,0 l/m² 0,00 h 13 W/m² 0,1 km/h (0 Bft) 97,79 %
29.12.2025 10:00 -0,6 °C -1,0 °C -3,4 °C 98 % 1027,3 hPa 0,0 l/m² 0,00 h 36 W/m² 0,6 km/h (0 Bft) 94,99 %
29.12.2025 11:00 -0,0 °C -0,3 °C -2,8 °C 98 % 1027,2 hPa 0,2 l/m² 0,00 h 45 W/m² 1,7 km/h (1 Bft) 97,61 %
29.12.2025 12:00 0,4 °C 0,3 °C -2,5 °C 98 % 1026,7 hPa 0,0 l/m² 0,00 h 49 W/m² 3,4 km/h (1 Bft) 94,73 %
29.12.2025 13:00 1,2 °C 1,2 °C -1,9 °C 98 % 1026,1 hPa 0,0 l/m² 0,00 h 53 W/m² 1,5 km/h (1 Bft) 97,80 %
29.12.2025 16:00 1,2 °C 1,1 °C -1,7 °C 98 % 1026,0 hPa 0,0 l/m² 0,00 h 0 W/m² 0,0 km/h (0 Bft) 96,97 %
29.12.2025 20:00 2,8 °C 2,2 °C -0,6 °C 100 % 1024,8 hPa 0,0 l/m² 0,00 h 0 W/m² 9,4 km/h (2 Bft) 0,00 %
29.12.2025 21:00 2,8 °C 2,1 °C -0,7 °C 100 % 1024,8 hPa 0,0 l/m² 0,00 h 0 W/m² 5,5 km/h (1 Bft) 0,00 %
29.12.2025 22:00 2,6 °C 1,9 °C -0,8 °C 100 % 1025,0 hPa 0,0 l/m² 0,00 h 0 W/m² 8,4 km/h (2 Bft) 0,00 %
29.12.2025 23:00 2,4 °C 1,8 °C -0,9 °C 100 % 1025,5 hPa 0,0 l/m² 0,00 h 0 W/m² 7,7 km/h (2 Bft) 0,00 %
30.12.2025 00:00 2,0 °C 1,2 °C -1,4 °C 100 % 1025,7 hPa 0,0 l/m² 0,00 h 0 W/m² 3,1 km/h (1 Bft) 0,00 %
30.12.2025 01:00 1,9 °C 1,3 °C -1,4 °C 100 % 1026,0 hPa 0,0 l/m² 0,00 h 0 W/m² 6,1 km/h (2 Bft) 0,00 %
30.12.2025 02:00 1,6 °C 0,6 °C -2,0 °C 100 % 1026,5 hPa 0,0 l/m² 0,00 h 0 W/m² 6,9 km/h (2 Bft) 0,00 %
30.12.2025 03:00 0,8 °C -0,6 °C -3,1 °C 100 % 1026,8 hPa 0,0 l/m² 0,00 h 0 W/m² 3,7 km/h (1 Bft) 0,00 %
30.12.2025 04:00 -0,1 °C -1,2 °C -3,6 °C 99 % 1026,9 hPa 0,0 l/m² 0,00 h 0 W/m² 2,3 km/h (1 Bft) 0,00 %
30.12.2025 05:00 -0,6 °C -1,7 °C -4,1 °C 99 % 1026,9 hPa 0,0 l/m² 0,00 h 0 W/m² 0,4 km/h (0 Bft) 0,00 %
30.12.2025 06:00 -1,0 °C -1,8 °C -4,3 °C 99 % 1027,2 hPa 0,0 l/m² 0,00 h 0 W/m² 2,2 km/h (1 Bft) 0,00 %
30.12.2025 07:00 -1,2 °C -1,8 °C -4,3 °C 99 % 1027,7 hPa 0,0 l/m² 0,00 h 0 W/m² 3,0 km/h (1 Bft) 0,00 %
30.12.2025 08:00 -1,4 °C -2,0 °C -4,6 °C 99 % 1028,4 hPa 0,0 l/m² 0,00 h 9 W/m² 5,0 km/h (1 Bft) 0,00 %
30.12.2025 09:00 -1,4 °C -1,6 °C -4,4 °C 100 % 1028,9 hPa 0,0 l/m² 0,00 h 20 W/m² 1,4 km/h (1 Bft) 0,00 %
30.12.2025 10:00 -0,5 °C -0,4 °C -3,6 °C 100 % 1029,3 hPa 0,0 l/m² 0,07 h 62 W/m² 1,8 km/h (1 Bft) 0,00 %
30.12.2025 11:00 0,7 °C 1,4 °C -2,7 °C 100 % 1029,4 hPa 0,0 l/m² 0,63 h 160 W/m² 4,8 km/h (1 Bft) 0,00 %
30.12.2025 12:00 2,2 °C 4,0 °C -1,8 °C 100 % 1029,2 hPa 0,0 l/m² 0,77 h 214 W/m² 11,6 km/h (2 Bft) 0,00 %
30.12.2025 13:00 3,8 °C 7,6 °C -1,3 °C 95 % 1029,0 hPa 0,0 l/m² 1,00 h 241 W/m² 11,0 km/h (2 Bft) 0,00 %
30.12.2025 14:00 4,4 °C 4,5 °C -1,0 °C 83 % 1029,0 hPa 0,0 l/m² 0,93 h 152 W/m² 10,5 km/h (2 Bft) 0,00 %
30.12.2025 15:00 3,8 °C 2,5 °C -1,2 °C 82 % 1029,2 hPa 0,0 l/m² 0,33 h 48 W/m² 8,3 km/h (2 Bft) 0,00 %
30.12.2025 16:00 2,7 °C 0,8 °C -2,7 °C 84 % 1029,3 hPa 0,0 l/m² 0,00 h 12 W/m² 1,5 km/h (1 Bft) 0,00 %
30.12.2025 17:00 1,3 °C -1,0 °C -4,3 °C 85 % 1029,5 hPa 0,0 l/m² 0,00 h 0 W/m² 0,7 km/h (0 Bft) 0,00 %
30.12.2025 18:00 0,2 °C -1,7 °C -4,8 °C 88 % 1029,5 hPa 0,0 l/m² 0,00 h 0 W/m² 0,0 km/h (0 Bft) 0,00 %
30.12.2025 19:00 -0,7 °C -2,2 °C -5,1 °C 91 % 1029,3 hPa 0,0 l/m² 0,00 h 0 W/m² 1,1 km/h (0 Bft) 0,00 %
30.12.2025 20:00 -1,1 °C -2,2 °C -5,1 °C 93 % 1029,5 hPa 0,0 l/m² 0,00 h 0 W/m² 1,8 km/h (1 Bft) 0,00 %
30.12.2025 21:00 -1,3 °C -2,2 °C -5,1 °C 94 % 1029,4 hPa 0,0 l/m² 0,00 h 0 W/m² 2,6 km/h (1 Bft) 0,00 %
30.12.2025 22:00 -1,4 °C -2,3 °C -5,2 °C 94 % 1029,4 hPa 0,0 l/m² 0,00 h 0 W/m² 0,6 km/h (0 Bft) 0,00 %
30.12.2025 23:00 -1,6 °C -2,3 °C -5,0 °C 95 % 1029,1 hPa 0,0 l/m² 0,00 h 0 W/m² 3,0 km/h (1 Bft) 0,00 %
31.12.2025 00:00 -1,7 °C -2,4 °C -5,2 °C 96 % 1028,8 hPa 0,2 l/m² 0,00 h 0 W/m² 2,8 km/h (1 Bft) 0,00 %
31.12.2025 01:00 -1,7 °C -2,3 °C -5,0 °C 96 % 1028,4 hPa 0,0 l/m² 0,00 h 0 W/m² 0,0 km/h (0 Bft) 0,00 %
31.12.2025 02:00 -1,7 °C -2,6 °C -5,2 °C 97 % 1028,0 hPa 0,0 l/m² 0,00 h 0 W/m² 0,0 km/h (0 Bft) 0,00 %
31.12.2025 03:00 -2,2 °C -3,1 °C -5,7 °C 97 % 1027,8 hPa 0,0 l/m² 0,00 h 0 W/m² 0,0 km/h (0 Bft) 0,00 %
31.12.2025 04:00 -2,2 °C -3,0 °C -5,5 °C 97 % 1027,2 hPa 0,0 l/m² 0,00 h 0 W/m² 0,0 km/h (0 Bft) 0,00 %
31.12.2025 05:00 -1,9 °C -2,7 °C -5,2 °C 97 % 1026,8 hPa 0,0 l/m² 0,00 h 0 W/m² 3,4 km/h (1 Bft) 0,00 %
31.12.2025 06:00 -1,8 °C -2,5 °C -5,0 °C 98 % 1026,5 hPa 0,0 l/m² 0,00 h 0 W/m² 3,6 km/h (1 Bft) 0,00 %
31.12.2025 07:00 -1,7 °C -2,4 °C -4,9 °C 98 % 1026,5 hPa 0,0 l/m² 0,00 h 0 W/m² 0,0 km/h (0 Bft) 0,00 %
31.12.2025 08:00 -1,7 °C -2,5 °C -5,0 °C 98 % 1026,3 hPa 0,0 l/m² 0,00 h 7 W/m² 0,0 km/h (0 Bft) 0,00 %
31.12.2025 09:00 -1,3 °C -1,6 °C -4,4 °C 98 % 1026,3 hPa 0,0 l/m² 0,00 h 21 W/m² 4,9 km/h (1 Bft) 0,00 %
31.12.2025 10:00 -0,4 °C -0,2 °C -3,3 °C 99 % 1025,9 hPa 0,0 l/m² 0,00 h 59 W/m² 7,3 km/h (2 Bft) 0,00 %
31.12.2025 11:00 0,6 °C 0,9 °C -2,2 °C 99 % 1025,4 hPa 0,0 l/m² 0,00 h 80 W/m² 7,3 km/h (2 Bft) 0,00 %
31.12.2025 12:00 1,4 °C 1,6 °C -1,6 °C 99 % 1024,6 hPa 0,0 l/m² 0,00 h 74 W/m² 9,3 km/h (2 Bft) 0,00 %
31.12.2025 13:00 1,9 °C 1,8 °C -1,3 °C 99 % 1023,9 hPa 0,0 l/m² 0,00 h 53 W/m² 8,2 km/h (2 Bft) 0,00 %
31.12.2025 14:00 2,4 °C 2,7 °C -0,8 °C 99 % 1023,2 hPa 0,0 l/m² 0,05 h 79 W/m² 9,7 km/h (2 Bft) 2,83 %
31.12.2025 15:00 2,8 °C 2,5 °C -0,6 °C 98 % 1023,2 hPa 0,0 l/m² 0,00 h 29 W/m² 8,8 km/h (2 Bft) 95,81 %
31.12.2025 16:00 2,8 °C 2,2 °C -0,6 °C 98 % 1022,8 hPa 0,0 l/m² 0,00 h 8 W/m² 12,2 km/h (2 Bft) 98,22 %
31.12.2025 17:00 2,9 °C 2,2 °C -0,6 °C 98 % 1022,3 hPa 0,0 l/m² 0,00 h 0 W/m² 10,4 km/h (2 Bft) 97,44 %
31.12.2025 18:00 2,8 °C 2,2 °C -0,6 °C 98 % 1021,8 hPa 0,0 l/m² 0,00 h 0 W/m² 7,9 km/h (2 Bft) 95,28 %
31.12.2025 19:00 2,6 °C 2,2 °C -0,6 °C 98 % 1021,6 hPa 0,2 l/m² 0,00 h 0 W/m² 9,7 km/h (2 Bft) 98,18 %
31.12.2025 20:00 2,4 °C 2,2 °C -0,6 °C 97 % 1021,3 hPa 0,0 l/m² 0,00 h 0 W/m² 13,9 km/h (3 Bft) 96,76 %
31.12.2025 21:00 2,6 °C 2,2 °C -0,6 °C 95 % 1020,8 hPa 0,0 l/m² 0,00 h 0 W/m² 10,5 km/h (2 Bft) 96,39 %
31.12.2025 22:00 2,5 °C 1,9 °C -0,6 °C 94 % 1019,8 hPa 0,0 l/m² 0,00 h 0 W/m² 9,3 km/h (2 Bft) 93,64 %
31.12.2025 23:00 2,1 °C 1,6 °C -1,1 °C 94 % 1019,0 hPa 0,0 l/m² 0,00 h 0 W/m² 10,4 km/h (2 Bft) 98,08 %
01.01.2026 00:00 2,3 °C 1,7 °C -0,7 °C 93 % 1018,0 hPa 0,0 l/m² 0,00 h 0 W/m² 14,3 km/h (3 Bft) 96,36 %
01.01.2026 01:00 2,3 °C 1,7 °C -0,6 °C 92 % 1016,9 hPa 0,0 l/m² 0,00 h 0 W/m² 15,6 km/h (3 Bft) 97,68 %
01.01.2026 02:00 2,3 °C 1,7 °C -0,9 °C 90 % 1016,1 hPa 0,0 l/m² 0,00 h 0 W/m² 16,4 km/h (3 Bft) 98,20 %
01.01.2026 03:00 2,2 °C 1,7 °C -1,1 °C 90 % 1015,2 hPa 0,0 l/m² 0,00 h 0 W/m² 18,5 km/h (3 Bft) 95,83 %
01.01.2026 04:00 2,1 °C 1,7 °C -1,1 °C 88 % 1013,8 hPa 0,0 l/m² 0,00 h 0 W/m² 19,1 km/h (3 Bft) 95,97 %
01.01.2026 05:00 2,2 °C 1,7 °C -1,1 °C 88 % 1012,3 hPa 0,0 l/m² 0,00 h 0 W/m² 21,1 km/h (4 Bft) 96,60 %
01.01.2026 06:00 2,3 °C 1,7 °C -1,1 °C 87 % 1011,2 hPa 0,0 l/m² 0,00 h 0 W/m² 19,2 km/h (3 Bft) 98,51 %
01.01.2026 07:00 2,4 °C 1,9 °C -1,1 °C 86 % 1010,0 hPa 0,0 l/m² 0,00 h 0 W/m² 20,7 km/h (4 Bft) 96,14 %
01.01.2026 08:00 2,7 °C 2,2 °C -1,1 °C 85 % 1009,1 hPa 0,0 l/m² 0,00 h 4 W/m² 20,9 km/h (4 Bft) 97,82 %
01.01.2026 09:00 2,9 °C 2,3 °C -1,1 °C 81 % 1008,5 hPa 0,0 l/m² 0,00 h 13 W/m² 24,6 km/h (4 Bft) 97,60 %
01.01.2026 10:00 3,1 °C 2,6 °C -0,9 °C 82 % 1007,5 hPa 0,0 l/m² 0,00 h 31 W/m² 26,4 km/h (4 Bft) 96,25 %
01.01.2026 11:00 3,2 °C 2,8 °C -0,8 °C 84 % 1006,2 hPa 0,0 l/m² 0,00 h 39 W/m² 28,0 km/h (4 Bft) 97,68 %
01.01.2026 12:00 3,4 °C 3,0 °C -0,6 °C 84 % 1005,0 hPa 0,0 l/m² 0,00 h 39 W/m² 25,0 km/h (4 Bft) 98,54 %
01.01.2026 13:00 3,6 °C 3,2 °C -0,6 °C 85 % 1004,1 hPa 0,0 l/m² 0,00 h 31 W/m² 25,6 km/h (4 Bft) 94,77 %
01.01.2026 14:00 3,5 °C 3,0 °C -0,7 °C 88 % 1003,3 hPa 0,0 l/m² 0,00 h 30 W/m² 23,2 km/h (4 Bft) 99,40 %
01.01.2026 15:00 3,2 °C 2,8 °C -1,0 °C 92 % 1002,6 hPa 0,0 l/m² 0,00 h 11 W/m² 22,1 km/h (4 Bft) 96,48 %
01.01.2026 16:00 3,2 °C 2,8 °C -0,8 °C 93 % 1002,1 hPa 0,0 l/m² 0,00 h 5 W/m² 21,3 km/h (4 Bft) 97,74 %
01.01.2026 17:00 3,3 °C 2,8 °C -0,6 °C 94 % 1001,8 hPa 0,0 l/m² 0,00 h 0 W/m² 20,4 km/h (4 Bft) 95,98 %
01.01.2026 18:00 3,4 °C 2,8 °C -0,6 °C 94 % 1001,3 hPa 0,0 l/m² 0,00 h 0 W/m² 21,4 km/h (4 Bft) 96,51 %
01.01.2026 19:00 3,6 °C 3,0 °C -0,4 °C 93 % 1000,7 hPa 0,0 l/m² 0,00 h 0 W/m² 20,7 km/h (4 Bft) 98,17 %
01.01.2026 20:00 3,7 °C 3,2 °C -0,2 °C 92 % 1000,3 hPa 0,0 l/m² 0,00 h 0 W/m² 21,7 km/h (4 Bft) 98,65 %
01.01.2026 21:00 3,7 °C 3,2 °C -0,3 °C 90 % 1000,2 hPa 0,2 l/m² 0,00 h 0 W/m² 20,3 km/h (4 Bft) 95,48 %
01.01.2026 22:00 3,4 °C 2,8 °C -1,1 °C 92 % 1000,0 hPa 0,5 l/m² 0,00 h 0 W/m² 19,5 km/h (3 Bft) 98,10 %
01.01.2026 23:00 3,1 °C 2,3 °C -1,3 °C 93 % 999,6 hPa 0,7 l/m² 0,00 h 0 W/m² 15,6 km/h (3 Bft) 97,10 %
02.01.2026 00:00 2,9 °C 2,2 °C -1,6 °C 93 % 999,1 hPa 0,0 l/m² 0,00 h 0 W/m² 19,3 km/h (3 Bft) 96,63 %
02.01.2026 01:00 2,8 °C 2,2 °C -1,7 °C 93 % 998,8 hPa 0,0 l/m² 0,00 h 0 W/m² 20,7 km/h (4 Bft) 97,14 %
02.01.2026 02:00 2,7 °C 2,0 °C -1,7 °C 92 % 998,5 hPa 0,0 l/m² 0,00 h 0 W/m² 18,1 km/h (3 Bft) 97,25 %
02.01.2026 03:00 1,2 °C 0,2 °C -3,1 °C 93 % 998,9 hPa 0,0 l/m² 0,00 h 0 W/m² 15,5 km/h (3 Bft) 98,27 %
02.01.2026 04:00 0,7 °C 0,0 °C -3,4 °C 95 % 998,7 hPa 0,0 l/m² 0,00 h 0 W/m² 14,9 km/h (3 Bft) 94,55 %
02.01.2026 05:00 0,6 °C 0,0 °C -3,3 °C 97 % 998,6 hPa 0,0 l/m² 0,00 h 0 W/m² 19,6 km/h (3 Bft) 99,07 %
02.01.2026 06:00 0,5 °C -0,2 °C -3,2 °C 96 % 998,9 hPa 0,0 l/m² 0,00 h 0 W/m² 14,5 km/h (3 Bft) 95,73 %
02.01.2026 07:00 0,2 °C -0,6 °C -3,4 °C 97 % 999,2 hPa 0,2 l/m² 0,00 h 0 W/m² 6,2 km/h (2 Bft) 96,81 %
02.01.2026 08:00 0,2 °C -0,6 °C -3,3 °C 97 % 999,4 hPa 0,0 l/m² 0,00 h 0 W/m² 7,2 km/h (2 Bft) 97,98 %
02.01.2026 09:00 0,4 °C 0,1 °C -3,3 °C 97 % 999,5 hPa 0,2 l/m² 0,00 h 10 W/m² 7,7 km/h (2 Bft) 95,47 %
02.01.2026 10:00 1,1 °C 0,9 °C -3,1 °C 92 % 999,9 hPa 0,2 l/m² 0,00 h 25 W/m² 13,1 km/h (3 Bft) 98,16 %
02.01.2026 11:00 1,6 °C 1,8 °C -2,8 °C 89 % 999,9 hPa 1,4 l/m² 0,30 h 109 W/m² 16,1 km/h (3 Bft) 95,29 %
02.01.2026 12:00 1,9 °C 2,9 °C -2,7 °C 88 % 999,6 hPa 1,2 l/m² 0,45 h 167 W/m² 14,6 km/h (3 Bft) 99,21 %
02.01.2026 13:00 2,7 °C 3,3 °C -2,3 °C 83 % 999,1 hPa 0,7 l/m² 0,20 h 112 W/m² 21,1 km/h (4 Bft) 96,02 %
02.01.2026 14:00 2,0 °C 2,2 °C -2,3 °C 88 % 999,3 hPa 0,5 l/m² 0,40 h 115 W/m² 20,9 km/h (4 Bft) 95,66 %
02.01.2026 15:00 1,8 °C 1,4 °C -2,4 °C 89 % 999,5 hPa 0,5 l/m² 0,17 h 44 W/m² 19,3 km/h (3 Bft) 97,87 %
02.01.2026 16:00 0,9 °C 0,2 °C -3,6 °C 93 % 1000,1 hPa 0,2 l/m² 0,00 h 5 W/m² 13,5 km/h (3 Bft) 97,13 %
02.01.2026 17:00 0,6 °C 0,0 °C -3,4 °C 96 % 1000,5 hPa 0,0 l/m² 0,00 h 0 W/m² 12,2 km/h (2 Bft) 96,73 %
02.01.2026 18:00 0,6 °C 0,0 °C -3,3 °C 96 % 1001,0 hPa 0,2 l/m² 0,00 h 0 W/m² 13,7 km/h (3 Bft) 98,23 %
02.01.2026 19:00 0,6 °C 0,0 °C -3,3 °C 96 % 1001,7 hPa 0,0 l/m² 0,00 h 0 W/m² 12,4 km/h (3 Bft) 97,03 %
02.01.2026 20:00 0,6 °C -0,0 °C -3,3 °C 96 % 1002,1 hPa 0,0 l/m² 0,00 h 0 W/m² 15,0 km/h (3 Bft) 96,61 %
02.01.2026 21:00 0,6 °C 0,2 °C -3,2 °C 96 % 1002,5 hPa 0,0 l/m² 0,00 h 0 W/m² 15,8 km/h (3 Bft) 97,32 %
02.01.2026 22:00 0,8 °C 0,1 °C -3,2 °C 95 % 1003,2 hPa 0,0 l/m² 0,00 h 0 W/m² 12,2 km/h (2 Bft) 98,19 %
02.01.2026 23:00 0,7 °C 0,0 °C -3,3 °C 95 % 1003,6 hPa 0,0 l/m² 0,00 h 0 W/m² 12,8 km/h (3 Bft) 95,89 %
03.01.2026 00:00 0,6 °C 0,0 °C -3,3 °C 96 % 1003,7 hPa 0,0 l/m² 0,00 h 0 W/m² 14,9 km/h (3 Bft) 95,51 %
03.01.2026 01:00 0,4 °C -0,2 °C -3,4 °C 95 % 1003,8 hPa 0,0 l/m² 0,00 h 0 W/m² 16,4 km/h (3 Bft) 96,98 %
03.01.2026 02:00 0,2 °C -0,6 °C -3,5 °C 94 % 1004,0 hPa 0,0 l/m² 0,00 h 0 W/m² 14,5 km/h (3 Bft) 95,51 %
03.01.2026 03:00 0,1 °C -0,8 °C -3,7 °C 94 % 1003,8 hPa 0,0 l/m² 0,00 h 0 W/m² 10,7 km/h (2 Bft) 97,76 %
03.01.2026 04:00 -0,3 °C -1,1 °C -3,9 °C 94 % 1003,5 hPa 0,0 l/m² 0,00 h 0 W/m² 14,0 km/h (3 Bft) 97,95 %
03.01.2026 05:00 -0,0 °C -0,6 °C -3,6 °C 93 % 1003,1 hPa 0,0 l/m² 0,00 h 0 W/m² 16,6 km/h (3 Bft) 96,45 %
03.01.2026 06:00 0,4 °C -0,0 °C -3,3 °C 91 % 1002,6 hPa 0,0 l/m² 0,00 h 0 W/m² 18,1 km/h (3 Bft) 95,27 %
03.01.2026 07:00 0,4 °C 0,0 °C -3,3 °C 90 % 1002,4 hPa 0,0 l/m² 0,00 h 0 W/m² 16,1 km/h (3 Bft) 98,00 %
03.01.2026 08:00 0,4 °C 0,0 °C -3,3 °C 88 % 1002,2 hPa 0,0 l/m² 0,00 h 4 W/m² 22,1 km/h (4 Bft) 94,73 %
03.01.2026 09:00 0,4 °C 0,0 °C -3,2 °C 88 % 1002,3 hPa 0,0 l/m² 0,08 h 34 W/m² 22,0 km/h (4 Bft) 98,90 %
03.01.2026 10:00 0,6 °C 0,6 °C -2,8 °C 89 % 1002,4 hPa 0,0 l/m² 0,00 h 55 W/m² 24,9 km/h (4 Bft) 99,93 %
03.01.2026 11:00 0,7 °C 0,9 °C -2,9 °C 91 % 1002,5 hPa 0,5 l/m² 0,50 h 134 W/m² 21,4 km/h (4 Bft) 97,66 %
03.01.2026 12:00 0,9 °C 0,9 °C -2,5 °C 92 % 1002,3 hPa 0,2 l/m² 0,08 h 92 W/m² 19,3 km/h (3 Bft) 99,78 %
03.01.2026 13:00 1,1 °C 0,9 °C -2,6 °C 92 % 1002,1 hPa 0,2 l/m² 0,15 h 94 W/m² 19,3 km/h (3 Bft) 97,31 %
03.01.2026 14:00 0,5 °C -0,1 °C -3,7 °C 94 % 1002,3 hPa 0,0 l/m² 0,00 h 36 W/m² 13,9 km/h (3 Bft) 94,96 %
03.01.2026 15:00 0,3 °C -0,5 °C -3,8 °C 96 % 1003,0 hPa 0,5 l/m² 0,00 h 14 W/m² 13,2 km/h (3 Bft) 95,63 %
03.01.2026 16:00 0,2 °C -0,4 °C -3,6 °C 96 % 1003,5 hPa 0,0 l/m² 0,00 h 7 W/m² 15,8 km/h (3 Bft) 97,80 %
03.01.2026 17:00 0,3 °C -0,6 °C -3,3 °C 97 % 1004,7 hPa 0,0 l/m² 0,00 h 0 W/m² 13,5 km/h (3 Bft) 96,52 %
03.01.2026 18:00 0,4 °C -0,1 °C -3,3 °C 97 % 1005,4 hPa 0,0 l/m² 0,00 h 0 W/m² 14,6 km/h (3 Bft) 97,52 %
03.01.2026 19:00 0,3 °C -0,3 °C -3,3 °C 97 % 1005,9 hPa 0,0 l/m² 0,00 h 0 W/m² 12,3 km/h (3 Bft) 97,01 %
03.01.2026 20:00 0,1 °C -0,5 °C -3,3 °C 96 % 1006,5 hPa 0,0 l/m² 0,00 h 0 W/m² 11,3 km/h (2 Bft) 97,63 %
03.01.2026 21:00 0,1 °C -0,6 °C -3,3 °C 97 % 1006,8 hPa 0,0 l/m² 0,00 h 0 W/m² 8,9 km/h (2 Bft) 95,49 %
03.01.2026 22:00 0,1 °C -0,6 °C -3,3 °C 97 % 1007,3 hPa 0,0 l/m² 0,00 h 0 W/m² 6,6 km/h (2 Bft) 98,29 %
03.01.2026 23:00 0,2 °C -0,6 °C -3,3 °C 97 % 1007,4 hPa 0,0 l/m² 0,00 h 0 W/m² 5,5 km/h (1 Bft) 95,62 %
04.01.2026 00:00 0,3 °C -0,0 °C -3,2 °C 97 % 1007,5 hPa 0,2 l/m² 0,00 h 0 W/m² 9,3 km/h (2 Bft) 94,62 %
04.01.2026 01:00 0,4 °C 0,0 °C -2,8 °C 97 % 1007,4 hPa 0,0 l/m² 0,00 h 0 W/m² 11,7 km/h (2 Bft) 98,02 %
04.01.2026 02:00 0,5 °C 0,0 °C -2,8 °C 97 % 1007,5 hPa 0,0 l/m² 0,00 h 0 W/m² 12,7 km/h (3 Bft) 96,81 %
04.01.2026 03:00 0,6 °C 0,0 °C -2,8 °C 97 % 1007,7 hPa 0,0 l/m² 0,00 h 0 W/m² 14,1 km/h (3 Bft) 95,49 %
04.01.2026 04:00 0,6 °C 0,0 °C -2,8 °C 97 % 1007,9 hPa 0,2 l/m² 0,00 h 0 W/m² 13,6 km/h (3 Bft) 95,77 %
04.01.2026 05:00 0,6 °C 0,0 °C -2,9 °C 97 % 1008,0 hPa 0,0 l/m² 0,00 h 0 W/m² 14,7 km/h (3 Bft) 98,44 %
04.01.2026 06:00 0,5 °C 0,0 °C -3,0 °C 96 % 1008,1 hPa 0,0 l/m² 0,00 h 0 W/m² 17,1 km/h (3 Bft) 96,28 %
04.01.2026 07:00 0,2 °C -0,5 °C -3,3 °C 94 % 1008,4 hPa 0,0 l/m² 0,00 h 0 W/m² 16,3 km/h (3 Bft) 96,52 %
04.01.2026 08:00 -0,3 °C -0,9 °C -3,4 °C 95 % 1008,8 hPa 0,0 l/m² 0,00 h 5 W/m² 17,3 km/h (3 Bft) 98,66 %
04.01.2026 09:00 -0,1 °C -0,6 °C -3,3 °C 95 % 1009,4 hPa 0,0 l/m² 0,00 h 15 W/m² 16,9 km/h (3 Bft) 95,85 %
04.01.2026 10:00 -0,1 °C -0,1 °C -3,4 °C 93 % 1009,9 hPa 0,0 l/m² 0,00 h 48 W/m² 17,8 km/h (3 Bft) 97,83 %
04.01.2026 11:00 0,1 °C 0,2 °C -3,3 °C 92 % 1010,2 hPa 0,2 l/m² 0,00 h 63 W/m² 17,2 km/h (3 Bft) 95,93 %
04.01.2026 12:00 0,3 °C 0,3 °C -3,3 °C 91 % 1010,3 hPa 0,2 l/m² 0,00 h 54 W/m² 16,2 km/h (3 Bft) 68,40 %
04.01.2026 13:00 0,5 °C 0,8 °C -3,0 °C 75 % 1010,0 hPa 0,2 l/m² 0,00 h 80 W/m² 9,5 km/h (2 Bft) 39,91 %
04.01.2026 14:00 0,7 °C 0,9 °C -3,1 °C 89 % 1009,8 hPa 0,2 l/m² 0,17 h 93 W/m² 14,9 km/h (3 Bft) 71,26 %
04.01.2026 15:00 0,6 °C 0,2 °C -3,3 °C 87 % 1010,1 hPa 0,5 l/m² 0,47 h 103 W/m² 15,0 km/h (3 Bft) 85,69 %
04.01.2026 16:00 0,2 °C -0,6 °C -3,8 °C 88 % 1010,6 hPa 0,0 l/m² 0,07 h 17 W/m² 11,8 km/h (2 Bft) 91,44 %
04.01.2026 17:00 -0,1 °C -0,6 °C -3,9 °C 89 % 1011,0 hPa 0,0 l/m² 0,00 h 0 W/m² 16,2 km/h (3 Bft) 98,77 %
04.01.2026 18:00 -0,4 °C -1,1 °C -3,9 °C 89 % 1011,0 hPa 0,0 l/m² 0,00 h 0 W/m² 19,2 km/h (3 Bft) 96,72 %
04.01.2026 19:00 -0,8 °C -1,6 °C -4,4 °C 89 % 1011,2 hPa 0,0 l/m² 0,00 h 0 W/m² 17,9 km/h (3 Bft) 94,73 %
04.01.2026 20:00 -1,2 °C -2,1 °C -4,9 °C 89 % 1011,4 hPa 0,0 l/m² 0,00 h 0 W/m² 10,9 km/h (2 Bft) 95,66 %
04.01.2026 21:00 -1,4 °C -2,2 °C -5,0 °C 90 % 1011,6 hPa 0,0 l/m² 0,00 h 0 W/m² 15,5 km/h (3 Bft) 99,20 %
04.01.2026 22:00 -1,7 °C -2,3 °C -5,1 °C 89 % 1011,7 hPa 0,0 l/m² 0,00 h 0 W/m² 10,8 km/h (2 Bft) 94,92 %
04.01.2026 23:00 -2,0 °C -2,8 °C -5,6 °C 88 % 1011,7 hPa 0,0 l/m² 0,00 h 0 W/m² 11,4 km/h (2 Bft) 98,37 %
Min-Datum _ 29.12.25 29.12.25 29.12.25 04.01.26 02.01.26 - - - 29.12.25 29.12.25
_ Min-Zeit 03:02 00:14 00:00 13:25 02:56 - - - 00:00 20:20
Minimum _ -4,2 °C -5,0 °C -7,2 °C 0 % 998,2 hPa - - - 0,0 km/h (0 Bft) 0,00 %
Max-Datum _ 30.12.25 30.12.25 01.01.26 29.12.25 30.12.25 02.01.26 30.12.25 02.01.26 01.01.26 29.12.25
_ Max-Zeit 14:46 13:22 19:34 20:20 17:52 11:04 14:11 12:56 10:42 00:18
Maximum _ 4,6 °C 9,4 °C 0,0 °C 100 % 1029,6 hPa 1,4 l/m² 0,08 h 339 W/m² 67,6 km/h
SO (8 Bft)
100,00 %
Durchschnitt _ 0,7 °C 0,2 °C -2,9 °C 94 % 1013,9 hPa #11,0 l/m² #6:49 h 56 W/m² 11,4 km/h (2 Bft) 70,59 %
© 2026 W. Hausmann